createdAt,value
2018-12-16T00:02:09.005Z,18.43
2018-12-16T00:04:37.612Z,21.23
2018-12-16T00:07:06.005Z,17.53
2018-12-16T00:09:35.138Z,20.37
2018-12-16T00:12:03.462Z,21.83
2018-12-16T00:14:31.761Z,22.20
2018-12-16T00:17:00.212Z,18.60
2018-12-16T00:19:28.498Z,16.47
2018-12-16T00:21:56.842Z,19.30
2018-12-16T00:24:25.118Z,19.77
2018-12-16T00:27:04.690Z,23.13
2018-12-16T00:29:33.019Z,21.13
2018-12-16T00:32:01.338Z,18.57
2018-12-16T00:34:29.730Z,19.73
2018-12-16T00:36:58.174Z,21.60
2018-12-16T00:39:26.683Z,19.03
2018-12-16T00:41:54.946Z,19.27
2018-12-16T00:44:23.242Z,19.03
2018-12-16T00:46:51.550Z,18.40
2018-12-16T00:49:19.838Z,21.67
2018-12-16T00:51:48.250Z,19.07
2018-12-16T00:54:16.580Z,21.33
2018-12-16T00:56:45.660Z,25.70
2018-12-16T00:59:13.918Z,19.03
2018-12-16T01:01:42.291Z,21.87
2018-12-16T01:04:10.579Z,17.73
2018-12-16T01:06:39.307Z,23.27
2018-12-16T01:09:08.022Z,19.70
2018-12-16T01:11:36.318Z,19.93
2018-12-16T01:14:04.737Z,19.57
2018-12-16T01:16:33.215Z,19.27
2018-12-16T01:19:01.586Z,21.37
2018-12-16T01:21:30.615Z,22.27
2018-12-16T01:23:58.907Z,18.57
2018-12-16T01:26:27.147Z,17.63
2018-12-16T01:28:55.455Z,20.83
2018-12-16T01:31:23.731Z,21.30
2018-12-16T01:33:52.011Z,19.60
2018-12-16T01:36:20.339Z,19.80
2018-12-16T01:38:48.612Z,20.13
2018-12-16T01:41:17.063Z,21.53
2018-12-16T01:43:45.395Z,19.47
2018-12-16T01:46:13.681Z,21.73
2018-12-16T01:48:42.059Z,24.33
2018-12-16T01:51:10.379Z,20.87
2018-12-16T01:53:38.699Z,22.70
2018-12-16T01:56:06.999Z,20.37
2018-12-16T01:58:35.307Z,17.53
2018-12-16T02:01:03.663Z,20.37
2018-12-16T02:03:31.980Z,22.47
2018-12-16T02:06:00.283Z,19.10
2018-12-16T02:08:28.697Z,18.83
2018-12-16T02:10:56.977Z,21.30
2018-12-16T02:13:25.429Z,22.00
2018-12-16T02:15:53.716Z,20.93
2018-12-16T02:18:22.108Z,21.10
2018-12-16T02:20:50.396Z,18.23
2018-12-16T02:23:18.864Z,21.43
2018-12-16T02:25:47.163Z,20.67
2018-12-16T02:28:15.620Z,19.23
2018-12-16T09:01:37.451Z,35.73
2018-12-16T09:04:05.826Z,33.40
2018-12-16T09:06:35.860Z,32.20
2018-12-16T09:09:06.449Z,35.43
2018-12-16T09:11:34.731Z,32.70
2018-12-16T09:14:03.036Z,42.40
2018-12-16T09:16:31.304Z,36.87
2018-12-16T09:18:59.559Z,33.40
2018-12-16T09:21:27.869Z,35.00
2018-12-16T09:23:56.144Z,33.40
2018-12-16T09:26:24.412Z,34.90
2018-12-16T09:28:52.688Z,35.43
2018-12-16T09:31:21.084Z,36.57
2018-12-16T09:33:49.384Z,37.27
2018-12-16T09:36:17.841Z,33.77
2018-12-16T09:38:46.168Z,34.73
2018-12-16T09:41:14.442Z,39.80
2018-12-16T09:43:42.801Z,39.47
2018-12-16T09:46:11.092Z,36.67
2018-12-16T09:48:39.344Z,33.83
2018-12-16T09:51:07.651Z,33.60
2018-12-16T09:53:36.029Z,34.73
2018-12-16T09:56:04.404Z,38.73
2018-12-16T09:58:32.703Z,32.47
2018-12-16T10:01:00.956Z,32.60
2018-12-16T10:03:29.321Z,34.97
2018-12-16T10:05:57.688Z,34.10
2018-12-16T10:08:25.936Z,36.57
2018-12-16T10:10:54.467Z,37.30
2018-12-16T10:13:22.740Z,32.33
2018-12-16T10:15:51.025Z,36.90
2018-12-16T10:18:19.280Z,42.03
2018-12-16T10:20:47.637Z,35.47
2018-12-16T10:23:15.905Z,35.50
2018-12-16T10:25:44.180Z,36.40
2018-12-16T10:28:12.477Z,36.93
2018-12-16T10:30:40.753Z,36.30
2018-12-16T10:33:09.033Z,38.13
2018-12-16T10:35:37.281Z,36.67
2018-12-16T10:38:05.582Z,38.87
2018-12-16T10:40:33.862Z,35.57
2018-12-16T10:43:02.294Z,33.43
2018-12-16T10:45:30.577Z,38.33
2018-12-16T10:47:58.845Z,35.70
2018-12-16T10:50:27.125Z,32.13
2018-12-16T10:52:55.445Z,32.37
2018-12-16T10:55:23.701Z,33.97
2018-12-16T10:57:51.953Z,32.10
2018-12-16T11:00:25.743Z,32.77
2018-12-16T11:02:54.049Z,31.87
2018-12-16T11:05:22.509Z,35.03
2018-12-16T11:07:51.034Z,34.10
2018-12-16T11:10:19.289Z,33.40
2018-12-16T11:12:47.949Z,35.30
2018-12-16T11:15:16.265Z,33.43
2018-12-16T11:17:44.530Z,36.40
2018-12-16T11:20:16.349Z,31.50
2018-12-16T11:22:44.622Z,33.53
2018-12-16T11:25:14.838Z,41.80
2018-12-16T11:27:43.239Z,36.73
2018-12-16T11:30:12.385Z,32.57
2018-12-16T11:32:40.698Z,34.60
2018-12-16T11:35:09.198Z,32.30
2018-12-16T11:37:37.458Z,31.47
2018-12-16T11:40:06.118Z,33.83
2018-12-16T11:42:34.414Z,33.50
2018-12-16T11:45:02.811Z,32.73
2018-12-16T11:47:31.087Z,35.73
2018-12-16T11:49:59.447Z,32.87
2018-12-16T11:52:27.747Z,35.90
2018-12-16T11:55:02.628Z,31.90
2018-12-16T11:57:30.923Z,34.40
2018-12-16T11:59:59.179Z,32.17
2018-12-16T12:02:32.828Z,38.00
2018-12-16T12:04:57.739Z,33.23
2018-12-16T12:07:26.031Z,34.93
2018-12-16T12:09:54.257Z,37.37
2018-12-16T12:12:22.521Z,41.10
2018-12-16T12:14:51.469Z,35.33
2018-12-16T12:17:19.747Z,38.00
2018-12-16T12:19:48.092Z,36.47
2018-12-16T12:22:16.439Z,36.43
2018-12-16T12:24:44.702Z,34.90
2018-12-16T12:27:12.942Z,35.43
2018-12-16T12:29:41.206Z,30.93
2018-12-16T12:32:09.525Z,34.57
2018-12-16T12:34:37.826Z,38.17
2018-12-16T12:37:06.170Z,35.47
2018-12-16T12:39:34.430Z,32.97
2018-12-16T12:42:02.698Z,38.80
2018-12-16T12:44:31.102Z,38.50
2018-12-16T12:46:59.362Z,36.77
2018-12-16T12:49:27.630Z,36.70
2018-12-16T12:51:55.914Z,44.97
2018-12-16T12:54:24.202Z,42.40
2018-12-16T12:56:52.486Z,39.43
2018-12-16T12:59:20.790Z,38.10
2018-12-16T13:01:49.058Z,38.20
2018-12-16T13:04:17.299Z,37.20
2018-12-16T13:06:45.662Z,40.23
2018-12-16T13:09:13.960Z,38.40
2018-12-16T13:11:42.287Z,38.67
2018-12-16T13:14:10.538Z,39.27
2018-12-16T13:16:38.829Z,38.57
2018-12-16T13:19:07.147Z,40.63
2018-12-16T13:21:35.395Z,37.77
2018-12-16T13:24:03.754Z,44.70
2018-12-16T13:26:32.249Z,40.80
2018-12-16T13:29:00.523Z,41.60
2018-12-16T13:36:40.837Z,38.03
2018-12-16T13:39:09.121Z,38.07
2018-12-16T13:41:39.325Z,49.93
2018-12-16T13:44:07.729Z,46.33
2018-12-16T13:46:35.983Z,43.27
2018-12-16T13:49:04.329Z,40.07
2018-12-16T13:51:32.576Z,45.20
2018-12-16T13:54:00.824Z,40.13
2018-12-16T13:56:29.160Z,43.20
2018-12-16T13:58:57.449Z,44.93
2018-12-16T14:01:25.725Z,44.83
2018-12-16T14:03:54.061Z,49.97
2018-12-16T14:06:22.334Z,41.93
2018-12-16T14:08:50.582Z,49.07
2018-12-16T14:11:18.879Z,44.77
2018-12-16T14:13:47.217Z,55.33
2018-12-16T14:16:15.513Z,54.20
2018-12-16T14:18:43.779Z,51.10
2018-12-16T14:21:12.169Z,52.50
2018-12-16T14:23:40.449Z,55.63
2018-12-16T14:26:08.697Z,53.27
2018-12-16T14:28:36.989Z,53.13
2018-12-16T14:31:05.280Z,55.13
2018-12-16T14:33:33.593Z,53.20
2018-12-16T14:36:02.182Z,59.47
2018-12-16T14:38:30.687Z,62.47
2018-12-16T14:40:59.571Z,61.53
2018-12-16T14:43:35.793Z,65.47
2018-12-16T14:46:04.041Z,61.47
2018-12-16T14:48:32.981Z,73.23
2018-12-16T14:51:01.257Z,60.20
2018-12-16T14:53:29.505Z,65.43
2018-12-16T14:55:57.813Z,69.63
2018-12-16T14:58:26.185Z,72.87
2018-12-16T15:00:54.461Z,71.23
2018-12-16T15:03:22.886Z,62.23
2018-12-16T15:08:47.023Z,84.53
2018-12-16T15:11:15.555Z,76.63
2018-12-16T15:13:43.877Z,67.03
2018-12-16T15:16:12.174Z,67.93
2018-12-16T15:18:40.590Z,73.20
2018-12-16T15:21:08.981Z,86.97
2018-12-16T15:23:37.253Z,78.53
2018-12-16T15:26:05.805Z,86.90
2018-12-16T15:28:34.421Z,90.73
2018-12-16T15:31:02.750Z,100.30
2018-12-16T15:33:31.033Z,88.90
2018-12-16T15:35:59.447Z,98.63
2018-12-16T15:38:27.901Z,107.03
2018-12-16T15:40:56.326Z,114.83
2018-12-16T15:43:24.623Z,115.93
2018-12-16T15:45:53.110Z,116.67
2018-12-16T15:48:21.387Z,127.67
2018-12-16T15:50:49.842Z,118.67
2018-12-16T15:53:18.204Z,122.07
2018-12-16T15:55:46.526Z,115.97
2018-12-16T15:58:14.790Z,116.83
2018-12-16T16:00:43.098Z,152.00
2018-12-16T16:03:11.407Z,127.13
2018-12-16T16:05:39.731Z,123.70
2018-12-16T16:08:08.032Z,135.53
2018-12-16T16:10:36.806Z,130.83
2018-12-16T16:13:05.103Z,117.00
2018-12-16T16:15:33.387Z,156.23
2018-12-16T16:18:01.942Z,184.50
2018-12-16T16:20:30.394Z,131.10
2018-12-16T16:22:58.698Z,138.70
2018-12-16T16:25:26.994Z,150.90
2018-12-16T16:27:55.287Z,126.70
2018-12-16T16:30:23.938Z,142.63
2018-12-16T16:32:52.338Z,190.37
2018-12-16T16:35:20.670Z,184.43
2018-12-16T16:37:49.119Z,138.37
2018-12-16T16:40:18.875Z,136.57
2018-12-16T16:42:47.162Z,135.13
2018-12-16T16:45:15.587Z,158.10
2018-12-16T16:47:43.978Z,149.87
2018-12-16T16:50:12.435Z,133.37
2018-12-16T16:52:40.738Z,165.90
2018-12-16T16:55:09.135Z,172.20
2018-12-16T16:57:37.443Z,179.90
2018-12-16T17:00:07.327Z,205.90
2018-12-16T17:02:35.609Z,169.90
2018-12-16T17:05:04.615Z,196.80
2018-12-16T17:07:33.123Z,155.13
2018-12-16T17:10:01.531Z,167.43
2018-12-16T17:12:29.831Z,161.63
2018-12-16T17:14:58.099Z,156.27
2018-12-16T17:17:26.365Z,153.63
2018-12-16T17:19:54.619Z,207.17
2018-12-16T17:22:22.864Z,154.13
2018-12-16T17:24:51.103Z,134.07
2018-12-16T17:27:19.531Z,168.77
2018-12-16T17:29:47.776Z,166.93
2018-12-16T17:32:16.028Z,162.67
2018-12-16T17:34:44.663Z,139.50
2018-12-16T17:37:12.959Z,130.60
2018-12-16T17:39:41.368Z,232.67
2018-12-16T17:42:09.672Z,226.00
2018-12-16T17:44:37.907Z,126.47
2018-12-16T17:47:06.237Z,255.83
2018-12-16T17:49:34.521Z,232.00
2018-12-16T17:52:02.779Z,194.20
2018-12-16T17:54:31.144Z,169.47
2018-12-16T17:56:59.405Z,174.10
2018-12-16T17:59:27.952Z,155.17
2018-12-16T18:01:56.764Z,186.20
2018-12-16T18:04:26.388Z,336.27
2018-12-16T18:06:54.684Z,262.23
2018-12-16T18:09:23.204Z,313.07
2018-12-16T18:11:51.535Z,142.33
2018-12-16T18:14:19.861Z,116.73
2018-12-16T18:16:48.196Z,265.90
2018-12-16T18:19:17.228Z,183.13
2018-12-16T18:21:45.503Z,202.50
2018-12-16T18:24:14.212Z,261.23
2018-12-16T18:26:44.282Z,207.17
2018-12-16T18:29:12.996Z,159.57
2018-12-16T18:31:41.299Z,144.20
2018-12-16T18:34:09.581Z,125.57
2018-12-16T18:36:37.913Z,102.87
2018-12-16T18:39:09.639Z,98.37
2018-12-16T18:41:38.436Z,95.77
2018-12-16T18:44:06.759Z,74.67
2018-12-16T18:46:35.108Z,76.53
2018-12-16T18:49:03.439Z,74.87
2018-12-16T18:51:32.266Z,75.63
2018-12-16T18:54:00.702Z,64.73
2018-12-16T18:56:29.024Z,63.80
2018-12-16T18:58:57.419Z,59.67
2018-12-16T19:01:25.731Z,56.40
2018-12-16T19:03:54.040Z,56.27
2018-12-16T19:06:22.399Z,58.43
2018-12-16T19:08:50.820Z,54.20
2018-12-16T19:11:19.111Z,59.80
2018-12-16T19:13:47.439Z,55.70
2018-12-16T19:16:15.804Z,60.20
2018-12-16T19:18:44.267Z,59.80
2018-12-16T19:21:12.684Z,61.97
2018-12-16T19:23:41.108Z,64.90
2018-12-16T19:26:09.480Z,60.97
2018-12-16T19:28:37.764Z,71.57
2018-12-16T19:31:05.984Z,63.47
2018-12-16T19:33:34.280Z,65.43
2018-12-16T19:36:09.224Z,75.90
2018-12-16T19:38:37.576Z,78.87
2018-12-16T19:41:05.824Z,71.90
2018-12-16T19:43:34.063Z,70.83
2018-12-16T19:46:02.344Z,67.77
2018-12-16T19:48:30.657Z,67.77
2018-12-16T19:50:58.972Z,74.67
2018-12-16T19:53:27.221Z,62.87
2018-12-16T19:55:55.498Z,67.83
2018-12-16T19:58:24.413Z,66.67
2018-12-16T20:00:52.664Z,69.77
2018-12-16T20:03:20.920Z,71.63
2018-12-16T20:05:54.624Z,66.23
2018-12-16T20:08:22.864Z,73.17
2018-12-16T20:10:51.128Z,75.60
2018-12-16T20:13:19.412Z,92.60
2018-12-16T20:15:47.652Z,82.77
2018-12-16T20:18:15.889Z,99.20
2018-12-16T20:20:44.153Z,104.00
2018-12-16T20:23:12.388Z,84.43
2018-12-16T20:25:40.624Z,99.13
2018-12-16T20:28:08.876Z,91.77
2018-12-16T20:30:37.233Z,91.07
2018-12-16T20:33:05.456Z,111.10
2018-12-16T20:35:34.218Z,103.03
2018-12-16T20:38:02.595Z,82.63
2018-12-16T20:40:30.871Z,116.20
2018-12-16T20:42:59.409Z,121.00
2018-12-16T20:45:27.653Z,114.90
2018-12-16T20:47:55.885Z,100.27
2018-12-16T20:50:24.129Z,161.47
2018-12-16T20:52:52.469Z,161.27
2018-12-16T20:55:20.725Z,196.83
2018-12-16T20:57:48.973Z,102.20
2018-12-16T21:00:17.337Z,236.60
2018-12-16T21:02:45.561Z,274.77
2018-12-16T21:05:13.827Z,112.57
